sensor_id;sensor_type;location;lat;lon;timestamp;P1;durP1;ratioP1;P2;durP2;ratioP2
6809;SDS011;3443;48.812;9.112;2023-07-31T00:00:18;2.40;;;0.57;;
6809;SDS011;3443;48.812;9.112;2023-07-31T00:02:44;0.63;;;0.63;;
6809;SDS011;3443;48.812;9.112;2023-07-31T00:05:10;0.98;;;0.95;;
6809;SDS011;3443;48.812;9.112;2023-07-31T00:07:36;0.60;;;0.60;;
6809;SDS011;3443;48.812;9.112;2023-07-31T00:10:02;1.40;;;0.60;;
6809;SDS011;3443;48.812;9.112;2023-07-31T00:12:28;0.60;;;0.60;;
6809;SDS011;3443;48.812;9.112;2023-07-31T00:14:54;2.25;;;0.70;;
6809;SDS011;3443;48.812;9.112;2023-07-31T00:17:20;0.55;;;0.55;;
6809;SDS011;3443;48.812;9.112;2023-07-31T00:19:46;1.65;;;0.75;;
6809;SDS011;3443;48.812;9.112;2023-07-31T00:22:14;1.80;;;0.77;;
6809;SDS011;3443;48.812;9.112;2023-07-31T00:24:40;1.15;;;0.63;;
6809;SDS011;3443;48.812;9.112;2023-07-31T00:27:06;2.70;;;0.75;;
6809;SDS011;3443;48.812;9.112;2023-07-31T00:29:32;2.28;;;0.77;;
6809;SDS011;3443;48.812;9.112;2023-07-31T00:31:58;3.10;;;0.90;;
6809;SDS011;3443;48.812;9.112;2023-07-31T00:34:24;2.15;;;0.75;;
6809;SDS011;3443;48.812;9.112;2023-07-31T00:36:49;1.77;;;0.70;;
6809;SDS011;3443;48.812;9.112;2023-07-31T00:39:15;1.60;;;0.60;;
6809;SDS011;3443;48.812;9.112;2023-07-31T00:41:41;0.60;;;0.50;;
6809;SDS011;3443;48.812;9.112;2023-07-31T00:44:07;2.13;;;0.60;;
6809;SDS011;3443;48.812;9.112;2023-07-31T00:46:33;1.15;;;0.60;;
6809;SDS011;3443;48.812;9.112;2023-07-31T00:48:59;1.45;;;0.75;;
6809;SDS011;3443;48.812;9.112;2023-07-31T00:51:26;2.45;;;0.55;;
6809;SDS011;3443;48.812;9.112;2023-07-31T00:53:52;1.65;;;0.65;;
6809;SDS011;3443;48.812;9.112;2023-07-31T00:56:19;3.10;;;0.68;;
6809;SDS011;3443;48.812;9.112;2023-07-31T00:58:45;2.10;;;0.85;;
6809;SDS011;3443;48.812;9.112;2023-07-31T01:01:11;2.55;;;0.68;;
6809;SDS011;3443;48.812;9.112;2023-07-31T01:03:37;1.33;;;0.90;;
6809;SDS011;3443;48.812;9.112;2023-07-31T01:06:10;1.65;;;1.00;;
6809;SDS011;3443;48.812;9.112;2023-07-31T01:08:42;1.33;;;0.82;;
6809;SDS011;3443;48.812;9.112;2023-07-31T01:11:19;2.70;;;0.65;;
6809;SDS011;3443;48.812;9.112;2023-07-31T01:13:47;1.35;;;0.77;;
6809;SDS011;3443;48.812;9.112;2023-07-31T01:16:13;1.33;;;1.00;;
6809;SDS011;3443;48.812;9.112;2023-07-31T01:18:39;3.83;;;0.77;;
6809;SDS011;3443;48.812;9.112;2023-07-31T01:24:20;0.68;;;0.52;;
6809;SDS011;3443;48.812;9.112;2023-07-31T01:26:30;1.80;;;0.50;;
6809;SDS011;3443;48.812;9.112;2023-07-31T01:29:10;0.88;;;0.82;;
6809;SDS011;3443;48.812;9.112;2023-07-31T01:31:37;1.75;;;0.90;;
6809;SDS011;3443;48.812;9.112;2023-07-31T01:34:04;0.65;;;0.65;;
6809;SDS011;3443;48.812;9.112;2023-07-31T01:36:31;2.72;;;1.00;;
6809;SDS011;3443;48.812;9.112;2023-07-31T01:38:58;1.88;;;0.50;;
6809;SDS011;3443;48.812;9.112;2023-07-31T01:41:25;1.33;;;0.73;;
6809;SDS011;3443;48.812;9.112;2023-07-31T01:43:51;1.27;;;0.80;;
6809;SDS011;3443;48.812;9.112;2023-07-31T01:46:17;1.90;;;0.88;;
6809;SDS011;3443;48.812;9.112;2023-07-31T01:48:43;1.67;;;0.98;;
6809;SDS011;3443;48.812;9.112;2023-07-31T01:51:09;1.58;;;0.70;;
6809;SDS011;3443;48.812;9.112;2023-07-31T01:53:35;0.60;;;0.60;;
6809;SDS011;3443;48.812;9.112;2023-07-31T01:56:01;3.00;;;0.98;;
6809;SDS011;3443;48.812;9.112;2023-07-31T01:58:27;1.95;;;0.68;;
6809;SDS011;3443;48.812;9.112;2023-07-31T02:00:53;0.80;;;0.77;;
6809;SDS011;3443;48.812;9.112;2023-07-31T02:03:18;1.90;;;0.70;;
6809;SDS011;3443;48.812;9.112;2023-07-31T02:05:48;2.58;;;0.80;;
6809;SDS011;3443;48.812;9.112;2023-07-31T02:08:14;2.13;;;0.70;;
6809;SDS011;3443;48.812;9.112;2023-07-31T02:10:40;3.13;;;0.90;;
6809;SDS011;3443;48.812;9.112;2023-07-31T02:13:06;2.95;;;1.05;;
6809;SDS011;3443;48.812;9.112;2023-07-31T02:15:32;0.98;;;0.77;;
6809;SDS011;3443;48.812;9.112;2023-07-31T02:17:58;1.30;;;0.77;;
6809;SDS011;3443;48.812;9.112;2023-07-31T02:20:24;2.58;;;1.27;;
6809;SDS011;3443;48.812;9.112;2023-07-31T02:22:50;1.73;;;0.70;;
6809;SDS011;3443;48.812;9.112;2023-07-31T02:25:16;0.80;;;0.73;;
6809;SDS011;3443;48.812;9.112;2023-07-31T02:27:42;2.30;;;0.80;;
6809;SDS011;3443;48.812;9.112;2023-07-31T02:30:08;0.90;;;0.90;;
6809;SDS011;3443;48.812;9.112;2023-07-31T02:32:35;0.88;;;0.88;;
6809;SDS011;3443;48.812;9.112;2023-07-31T02:35:01;1.85;;;0.40;;
6809;SDS011;3443;48.812;9.112;2023-07-31T02:37:28;4.00;;;0.80;;
6809;SDS011;3443;48.812;9.112;2023-07-31T02:39:54;2.22;;;0.88;;
6809;SDS011;3443;48.812;9.112;2023-07-31T02:42:20;2.45;;;0.90;;
6809;SDS011;3443;48.812;9.112;2023-07-31T02:44:46;2.22;;;0.98;;
6809;SDS011;3443;48.812;9.112;2023-07-31T02:47:12;1.13;;;0.80;;
6809;SDS011;3443;48.812;9.112;2023-07-31T02:49:38;0.98;;;0.90;;
6809;SDS011;3443;48.812;9.112;2023-07-31T02:52:04;3.90;;;0.88;;
6809;SDS011;3443;48.812;9.112;2023-07-31T02:54:30;2.22;;;0.77;;
6809;SDS011;3443;48.812;9.112;2023-07-31T02:56:56;1.70;;;0.80;;
6809;SDS011;3443;48.812;9.112;2023-07-31T02:59:22;2.65;;;0.95;;
6809;SDS011;3443;48.812;9.112;2023-07-31T03:01:48;0.85;;;0.80;;
6809;SDS011;3443;48.812;9.112;2023-07-31T03:04:14;2.05;;;0.77;;
6809;SDS011;3443;48.812;9.112;2023-07-31T03:06:40;1.75;;;0.70;;
6809;SDS011;3443;48.812;9.112;2023-07-31T03:09:06;0.80;;;0.80;;
6809;SDS011;3443;48.812;9.112;2023-07-31T03:11:32;1.92;;;0.70;;
6809;SDS011;3443;48.812;9.112;2023-07-31T03:13:58;1.35;;;0.88;;
6809;SDS011;3443;48.812;9.112;2023-07-31T03:16:24;0.60;;;0.60;;
6809;SDS011;3443;48.812;9.112;2023-07-31T03:18:50;1.58;;;0.73;;
6809;SDS011;3443;48.812;9.112;2023-07-31T03:21:16;2.28;;;0.70;;
6809;SDS011;3443;48.812;9.112;2023-07-31T03:23:42;3.33;;;0.60;;
6809;SDS011;3443;48.812;9.112;2023-07-31T03:26:08;2.90;;;0.77;;
6809;SDS011;3443;48.812;9.112;2023-07-31T03:28:34;3.40;;;0.85;;
6809;SDS011;3443;48.812;9.112;2023-07-31T03:31:00;2.08;;;0.90;;
6809;SDS011;3443;48.812;9.112;2023-07-31T03:33:26;1.70;;;0.77;;
6809;SDS011;3443;48.812;9.112;2023-07-31T03:35:53;2.83;;;0.90;;
6809;SDS011;3443;48.812;9.112;2023-07-31T03:38:19;2.35;;;0.70;;
6809;SDS011;3443;48.812;9.112;2023-07-31T03:40:45;1.60;;;0.80;;
6809;SDS011;3443;48.812;9.112;2023-07-31T03:43:11;0.88;;;0.68;;
6809;SDS011;3443;48.812;9.112;2023-07-31T03:45:37;2.15;;;0.80;;
6809;SDS011;3443;48.812;9.112;2023-07-31T03:48:03;1.50;;;0.90;;
6809;SDS011;3443;48.812;9.112;2023-07-31T03:50:29;1.90;;;0.95;;
6809;SDS011;3443;48.812;9.112;2023-07-31T03:52:55;0.95;;;0.88;;
6809;SDS011;3443;48.812;9.112;2023-07-31T03:55:21;3.92;;;1.00;;
6809;SDS011;3443;48.812;9.112;2023-07-31T03:57:47;1.85;;;0.93;;
6809;SDS011;3443;48.812;9.112;2023-07-31T04:00:13;3.35;;;0.93;;
6809;SDS011;3443;48.812;9.112;2023-07-31T04:02:39;1.88;;;0.90;;
6809;SDS011;3443;48.812;9.112;2023-07-31T04:05:06;0.77;;;0.77;;
6809;SDS011;3443;48.812;9.112;2023-07-31T04:07:32;1.20;;;1.10;;
6809;SDS011;3443;48.812;9.112;2023-07-31T04:09:58;2.13;;;0.85;;
6809;SDS011;3443;48.812;9.112;2023-07-31T04:12:24;1.17;;;1.05;;
6809;SDS011;3443;48.812;9.112;2023-07-31T04:14:50;2.05;;;0.90;;
6809;SDS011;3443;48.812;9.112;2023-07-31T04:17:17;1.70;;;0.80;;
6809;SDS011;3443;48.812;9.112;2023-07-31T04:19:43;1.13;;;0.85;;
6809;SDS011;3443;48.812;9.112;2023-07-31T04:22:09;1.15;;;0.85;;
6809;SDS011;3443;48.812;9.112;2023-07-31T04:24:35;1.10;;;0.90;;
6809;SDS011;3443;48.812;9.112;2023-07-31T04:27:01;1.50;;;0.73;;
6809;SDS011;3443;48.812;9.112;2023-07-31T04:29:27;3.38;;;0.70;;
6809;SDS011;3443;48.812;9.112;2023-07-31T04:31:53;3.00;;;0.68;;
6809;SDS011;3443;48.812;9.112;2023-07-31T04:34:19;2.20;;;0.80;;
6809;SDS011;3443;48.812;9.112;2023-07-31T04:36:45;1.67;;;0.65;;
6809;SDS011;3443;48.812;9.112;2023-07-31T04:39:11;4.05;;;0.65;;
6809;SDS011;3443;48.812;9.112;2023-07-31T04:41:37;1.75;;;0.77;;
6809;SDS011;3443;48.812;9.112;2023-07-31T04:44:03;2.50;;;0.70;;
6809;SDS011;3443;48.812;9.112;2023-07-31T04:46:29;2.38;;;0.90;;
6809;SDS011;3443;48.812;9.112;2023-07-31T04:48:55;2.35;;;0.82;;
6809;SDS011;3443;48.812;9.112;2023-07-31T04:51:21;3.22;;;0.85;;
6809;SDS011;3443;48.812;9.112;2023-07-31T04:53:48;2.28;;;0.82;;
6809;SDS011;3443;48.812;9.112;2023-07-31T04:56:14;1.65;;;1.10;;
6809;SDS011;3443;48.812;9.112;2023-07-31T04:58:40;0.93;;;0.90;;
6809;SDS011;3443;48.812;9.112;2023-07-31T05:01:06;3.72;;;0.77;;
6809;SDS011;3443;48.812;9.112;2023-07-31T05:03:32;2.40;;;0.90;;
6809;SDS011;3443;48.812;9.112;2023-07-31T05:05:58;1.48;;;0.90;;
6809;SDS011;3443;48.812;9.112;2023-07-31T05:08:24;1.92;;;0.95;;
6809;SDS011;3443;48.812;9.112;2023-07-31T05:10:50;1.40;;;0.68;;
6809;SDS011;3443;48.812;9.112;2023-07-31T05:13:16;1.88;;;0.90;;
6809;SDS011;3443;48.812;9.112;2023-07-31T05:15:42;2.90;;;0.90;;
6809;SDS011;3443;48.812;9.112;2023-07-31T05:18:08;1.83;;;0.80;;
6809;SDS011;3443;48.812;9.112;2023-07-31T05:20:34;1.40;;;0.73;;
6809;SDS011;3443;48.812;9.112;2023-07-31T05:23:00;1.88;;;1.10;;
6809;SDS011;3443;48.812;9.112;2023-07-31T05:25:26;2.13;;;0.95;;
6809;SDS011;3443;48.812;9.112;2023-07-31T05:27:52;1.25;;;0.85;;
6809;SDS011;3443;48.812;9.112;2023-07-31T05:30:18;0.98;;;0.50;;
6809;SDS011;3443;48.812;9.112;2023-07-31T05:32:44;2.15;;;0.80;;
6809;SDS011;3443;48.812;9.112;2023-07-31T05:35:10;0.85;;;0.80;;
6809;SDS011;3443;48.812;9.112;2023-07-31T05:37:36;2.15;;;0.98;;
6809;SDS011;3443;48.812;9.112;2023-07-31T05:40:02;3.17;;;1.10;;
6809;SDS011;3443;48.812;9.112;2023-07-31T05:42:29;2.20;;;1.00;;
6809;SDS011;3443;48.812;9.112;2023-07-31T05:44:55;1.40;;;0.80;;
6809;SDS011;3443;48.812;9.112;2023-07-31T05:47:21;1.48;;;0.90;;
6809;SDS011;3443;48.812;9.112;2023-07-31T05:49:47;1.50;;;0.93;;
6809;SDS011;3443;48.812;9.112;2023-07-31T05:52:14;2.75;;;1.10;;
6809;SDS011;3443;48.812;9.112;2023-07-31T05:54:41;1.65;;;0.80;;
6809;SDS011;3443;48.812;9.112;2023-07-31T05:57:07;1.88;;;1.02;;
6809;SDS011;3443;48.812;9.112;2023-07-31T05:59:33;3.65;;;0.98;;
6809;SDS011;3443;48.812;9.112;2023-07-31T06:01:59;3.70;;;1.10;;
6809;SDS011;3443;48.812;9.112;2023-07-31T06:04:25;3.33;;;1.00;;
6809;SDS011;3443;48.812;9.112;2023-07-31T06:06:51;0.90;;;0.73;;
6809;SDS011;3443;48.812;9.112;2023-07-31T06:09:17;1.85;;;1.00;;
6809;SDS011;3443;48.812;9.112;2023-07-31T06:11:43;0.80;;;0.80;;
6809;SDS011;3443;48.812;9.112;2023-07-31T06:14:09;0.85;;;0.85;;
6809;SDS011;3443;48.812;9.112;2023-07-31T06:16:35;1.50;;;0.90;;
6809;SDS011;3443;48.812;9.112;2023-07-31T06:19:01;1.65;;;0.95;;
6809;SDS011;3443;48.812;9.112;2023-07-31T06:21:27;2.65;;;1.10;;
6809;SDS011;3443;48.812;9.112;2023-07-31T06:23:54;1.35;;;0.73;;
6809;SDS011;3443;48.812;9.112;2023-07-31T06:26:20;1.50;;;0.98;;
6809;SDS011;3443;48.812;9.112;2023-07-31T06:28:46;2.83;;;0.70;;
6809;SDS011;3443;48.812;9.112;2023-07-31T06:31:12;3.72;;;1.15;;
6809;SDS011;3443;48.812;9.112;2023-07-31T06:33:38;2.13;;;1.10;;
6809;SDS011;3443;48.812;9.112;2023-07-31T06:36:04;1.77;;;0.90;;
6809;SDS011;3443;48.812;9.112;2023-07-31T06:38:30;3.50;;;1.27;;
6809;SDS011;3443;48.812;9.112;2023-07-31T06:40:56;1.13;;;1.13;;
6809;SDS011;3443;48.812;9.112;2023-07-31T06:43:22;2.95;;;1.13;;
6809;SDS011;3443;48.812;9.112;2023-07-31T06:45:48;2.88;;;1.00;;
6809;SDS011;3443;48.812;9.112;2023-07-31T06:48:16;3.30;;;1.10;;
6809;SDS011;3443;48.812;9.112;2023-07-31T06:50:42;1.02;;;0.90;;
6809;SDS011;3443;48.812;9.112;2023-07-31T06:53:08;1.27;;;1.00;;
6809;SDS011;3443;48.812;9.112;2023-07-31T06:55:34;1.85;;;1.20;;
6809;SDS011;3443;48.812;9.112;2023-07-31T06:58:00;3.53;;;1.00;;
6809;SDS011;3443;48.812;9.112;2023-07-31T07:00:26;2.63;;;0.88;;
6809;SDS011;3443;48.812;9.112;2023-07-31T07:02:53;4.90;;;1.05;;
6809;SDS011;3443;48.812;9.112;2023-07-31T07:05:19;1.05;;;0.82;;
6809;SDS011;3443;48.812;9.112;2023-07-31T07:07:45;3.88;;;1.42;;
6809;SDS011;3443;48.812;9.112;2023-07-31T07:10:11;2.75;;;1.00;;
6809;SDS011;3443;48.812;9.112;2023-07-31T07:12:37;1.92;;;1.08;;
6809;SDS011;3443;48.812;9.112;2023-07-31T07:15:03;1.05;;;0.80;;
6809;SDS011;3443;48.812;9.112;2023-07-31T07:17:30;3.45;;;1.02;;
6809;SDS011;3443;48.812;9.112;2023-07-31T07:19:56;2.17;;;1.02;;
6809;SDS011;3443;48.812;9.112;2023-07-31T07:22:22;1.65;;;0.90;;
6809;SDS011;3443;48.812;9.112;2023-07-31T07:24:49;2.35;;;1.05;;
6809;SDS011;3443;48.812;9.112;2023-07-31T07:27:15;2.55;;;0.82;;
6809;SDS011;3443;48.812;9.112;2023-07-31T07:29:41;1.75;;;1.10;;
6809;SDS011;3443;48.812;9.112;2023-07-31T07:32:07;1.98;;;1.02;;
6809;SDS011;3443;48.812;9.112;2023-07-31T07:34:33;2.83;;;1.10;;
6809;SDS011;3443;48.812;9.112;2023-07-31T07:36:59;2.58;;;1.60;;
6809;SDS011;3443;48.812;9.112;2023-07-31T07:39:25;1.67;;;1.17;;
6809;SDS011;3443;48.812;9.112;2023-07-31T07:41:51;1.20;;;1.05;;
6809;SDS011;3443;48.812;9.112;2023-07-31T07:44:18;3.63;;;1.17;;
6809;SDS011;3443;48.812;9.112;2023-07-31T07:46:44;1.38;;;1.08;;
6809;SDS011;3443;48.812;9.112;2023-07-31T07:49:10;3.08;;;1.25;;
6809;SDS011;3443;48.812;9.112;2023-07-31T07:51:36;1.20;;;1.10;;
6809;SDS011;3443;48.812;9.112;2023-07-31T07:54:02;2.15;;;1.20;;
6809;SDS011;3443;48.812;9.112;2023-07-31T07:56:28;2.85;;;1.48;;
6809;SDS011;3443;48.812;9.112;2023-07-31T07:58:54;3.80;;;1.30;;
6809;SDS011;3443;48.812;9.112;2023-07-31T08:01:20;5.53;;;1.42;;
6809;SDS011;3443;48.812;9.112;2023-07-31T08:03:49;3.00;;;1.50;;
6809;SDS011;3443;48.812;9.112;2023-07-31T08:06:15;2.97;;;1.20;;
6809;SDS011;3443;48.812;9.112;2023-07-31T08:08:42;1.73;;;1.10;;
6809;SDS011;3443;48.812;9.112;2023-07-31T08:11:08;3.05;;;1.20;;
6809;SDS011;3443;48.812;9.112;2023-07-31T08:13:34;2.72;;;1.33;;
6809;SDS011;3443;48.812;9.112;2023-07-31T08:16:01;2.35;;;1.30;;
6809;SDS011;3443;48.812;9.112;2023-07-31T08:18:27;4.70;;;1.48;;
6809;SDS011;3443;48.812;9.112;2023-07-31T08:20:53;3.05;;;1.38;;
6809;SDS011;3443;48.812;9.112;2023-07-31T08:23:19;2.17;;;1.52;;
6809;SDS011;3443;48.812;9.112;2023-07-31T08:25:45;1.60;;;1.30;;
6809;SDS011;3443;48.812;9.112;2023-07-31T08:28:11;3.05;;;1.45;;
6809;SDS011;3443;48.812;9.112;2023-07-31T08:30:37;2.20;;;1.83;;
6809;SDS011;3443;48.812;9.112;2023-07-31T08:33:03;2.78;;;1.40;;
6809;SDS011;3443;48.812;9.112;2023-07-31T08:35:29;2.50;;;1.45;;
6809;SDS011;3443;48.812;9.112;2023-07-31T08:37:55;2.47;;;1.40;;
6809;SDS011;3443;48.812;9.112;2023-07-31T08:40:21;3.72;;;1.63;;
6809;SDS011;3443;48.812;9.112;2023-07-31T08:42:48;3.15;;;1.33;;
6809;SDS011;3443;48.812;9.112;2023-07-31T08:45:15;1.63;;;1.52;;
6809;SDS011;3443;48.812;9.112;2023-07-31T08:47:43;5.68;;;1.77;;
6809;SDS011;3443;48.812;9.112;2023-07-31T08:50:10;2.22;;;1.67;;
6809;SDS011;3443;48.812;9.112;2023-07-31T08:52:37;3.22;;;1.52;;
6809;SDS011;3443;48.812;9.112;2023-07-31T08:55:04;1.52;;;1.15;;
6809;SDS011;3443;48.812;9.112;2023-07-31T08:57:30;2.13;;;1.45;;
6809;SDS011;3443;48.812;9.112;2023-07-31T08:59:57;1.73;;;1.42;;
6809;SDS011;3443;48.812;9.112;2023-07-31T09:02:23;2.85;;;1.38;;
6809;SDS011;3443;48.812;9.112;2023-07-31T09:04:52;1.73;;;1.25;;
6809;SDS011;3443;48.812;9.112;2023-07-31T09:07:18;2.80;;;1.45;;
6809;SDS011;3443;48.812;9.112;2023-07-31T09:09:44;4.03;;;1.42;;
6809;SDS011;3443;48.812;9.112;2023-07-31T09:12:11;1.85;;;1.23;;
6809;SDS011;3443;48.812;9.112;2023-07-31T09:14:37;2.50;;;1.20;;
6809;SDS011;3443;48.812;9.112;2023-07-31T09:17:04;3.22;;;1.50;;
6809;SDS011;3443;48.812;9.112;2023-07-31T09:19:33;1.45;;;1.35;;
6809;SDS011;3443;48.812;9.112;2023-07-31T09:22:01;2.22;;;1.38;;
6809;SDS011;3443;48.812;9.112;2023-07-31T09:24:28;1.48;;;1.38;;
6809;SDS011;3443;48.812;9.112;2023-07-31T09:26:55;1.50;;;1.40;;
6809;SDS011;3443;48.812;9.112;2023-07-31T09:29:21;1.58;;;1.27;;
6809;SDS011;3443;48.812;9.112;2023-07-31T09:31:48;2.28;;;1.67;;
6809;SDS011;3443;48.812;9.112;2023-07-31T09:34:14;1.95;;;1.30;;
6809;SDS011;3443;48.812;9.112;2023-07-31T09:36:41;3.13;;;1.40;;
6809;SDS011;3443;48.812;9.112;2023-07-31T09:39:08;3.10;;;1.63;;
6809;SDS011;3443;48.812;9.112;2023-07-31T09:41:38;3.55;;;1.40;;
6809;SDS011;3443;48.812;9.112;2023-07-31T09:44:04;6.85;;;2.30;;
6809;SDS011;3443;48.812;9.112;2023-07-31T09:46:30;2.80;;;1.83;;
6809;SDS011;3443;48.812;9.112;2023-07-31T09:49:30;4.20;;;1.90;;
6809;SDS011;3443;48.812;9.112;2023-07-31T09:51:49;5.40;;;1.65;;
6809;SDS011;3443;48.812;9.112;2023-07-31T09:54:15;3.53;;;1.50;;
6809;SDS011;3443;48.812;9.112;2023-07-31T09:56:48;2.60;;;1.30;;
6809;SDS011;3443;48.812;9.112;2023-07-31T09:59:15;5.05;;;1.80;;
6809;SDS011;3443;48.812;9.112;2023-07-31T10:01:41;2.20;;;1.70;;
6809;SDS011;3443;48.812;9.112;2023-07-31T10:04:09;2.92;;;1.50;;
6809;SDS011;3443;48.812;9.112;2023-07-31T10:06:35;3.30;;;1.58;;
6809;SDS011;3443;48.812;9.112;2023-07-31T10:09:05;3.22;;;1.45;;
6809;SDS011;3443;48.812;9.112;2023-07-31T10:11:32;3.45;;;1.70;;
6809;SDS011;3443;48.812;9.112;2023-07-31T10:13:59;2.92;;;1.50;;
6809;SDS011;3443;48.812;9.112;2023-07-31T10:16:25;2.88;;;1.58;;
6809;SDS011;3443;48.812;9.112;2023-07-31T10:18:51;3.42;;;1.60;;
6809;SDS011;3443;48.812;9.112;2023-07-31T10:21:18;5.43;;;1.88;;
6809;SDS011;3443;48.812;9.112;2023-07-31T10:23:44;3.72;;;1.50;;
6809;SDS011;3443;48.812;9.112;2023-07-31T10:26:11;3.22;;;1.70;;
6809;SDS011;3443;48.812;9.112;2023-07-31T10:28:38;3.58;;;1.70;;
6809;SDS011;3443;48.812;9.112;2023-07-31T10:31:05;1.73;;;1.55;;
6809;SDS011;3443;48.812;9.112;2023-07-31T10:33:31;2.45;;;1.58;;
6809;SDS011;3443;48.812;9.112;2023-07-31T10:38:58;2.53;;;1.65;;
6809;SDS011;3443;48.812;9.112;2023-07-31T10:41:30;2.55;;;1.50;;
6809;SDS011;3443;48.812;9.112;2023-07-31T10:43:57;2.97;;;1.88;;
6809;SDS011;3443;48.812;9.112;2023-07-31T10:46:23;1.50;;;1.40;;
6809;SDS011;3443;48.812;9.112;2023-07-31T10:48:56;2.13;;;1.55;;
6809;SDS011;3443;48.812;9.112;2023-07-31T10:51:23;2.58;;;1.80;;
6809;SDS011;3443;48.812;9.112;2023-07-31T10:53:49;2.97;;;1.77;;
6809;SDS011;3443;48.812;9.112;2023-07-31T10:56:38;2.13;;;1.88;;
6809;SDS011;3443;48.812;9.112;2023-07-31T10:59:04;3.65;;;1.85;;
6809;SDS011;3443;48.812;9.112;2023-07-31T11:01:49;2.55;;;1.90;;
6809;SDS011;3443;48.812;9.112;2023-07-31T11:04:15;2.08;;;1.88;;
6809;SDS011;3443;48.812;9.112;2023-07-31T11:07:01;2.22;;;1.70;;
6809;SDS011;3443;48.812;9.112;2023-07-31T11:09:30;2.40;;;1.90;;
6809;SDS011;3443;48.812;9.112;2023-07-31T11:11:59;1.90;;;1.58;;
6809;SDS011;3443;48.812;9.112;2023-07-31T11:14:26;3.53;;;2.00;;
6809;SDS011;3443;48.812;9.112;2023-07-31T11:16:52;2.78;;;2.10;;
6809;SDS011;3443;48.812;9.112;2023-07-31T11:19:21;2.67;;;1.52;;
6809;SDS011;3443;48.812;9.112;2023-07-31T11:21:48;2.03;;;1.92;;
6809;SDS011;3443;48.812;9.112;2023-07-31T11:24:14;1.67;;;1.48;;
6809;SDS011;3443;48.812;9.112;2023-07-31T11:26:48;1.85;;;1.75;;
6809;SDS011;3443;48.812;9.112;2023-07-31T11:29:13;3.92;;;2.20;;
6809;SDS011;3443;48.812;9.112;2023-07-31T11:31:43;3.25;;;2.00;;
6809;SDS011;3443;48.812;9.112;2023-07-31T11:34:09;2.10;;;1.65;;
6809;SDS011;3443;48.812;9.112;2023-07-31T11:36:35;2.55;;;1.80;;
6809;SDS011;3443;48.812;9.112;2023-07-31T11:39:08;2.25;;;2.00;;
6809;SDS011;3443;48.812;9.112;2023-07-31T11:41:34;2.58;;;1.90;;
6809;SDS011;3443;48.812;9.112;2023-07-31T11:44:00;1.80;;;1.70;;
6809;SDS011;3443;48.812;9.112;2023-07-31T11:46:27;4.05;;;1.90;;
6809;SDS011;3443;48.812;9.112;2023-07-31T11:48:57;1.95;;;1.77;;
6809;SDS011;3443;48.812;9.112;2023-07-31T11:51:24;3.72;;;1.60;;
6809;SDS011;3443;48.812;9.112;2023-07-31T11:53:51;2.00;;;1.75;;
6809;SDS011;3443;48.812;9.112;2023-07-31T11:56:18;3.15;;;1.95;;
6809;SDS011;3443;48.812;9.112;2023-07-31T11:58:47;2.25;;;1.80;;
6809;SDS011;3443;48.812;9.112;2023-07-31T12:01:15;3.13;;;1.88;;
6809;SDS011;3443;48.812;9.112;2023-07-31T12:03:41;2.65;;;1.70;;
6809;SDS011;3443;48.812;9.112;2023-07-31T12:06:07;4.35;;;1.85;;
6809;SDS011;3443;48.812;9.112;2023-07-31T12:08:33;2.08;;;1.42;;
6809;SDS011;3443;48.812;9.112;2023-07-31T12:11:07;1.77;;;1.67;;
6809;SDS011;3443;48.812;9.112;2023-07-31T12:13:36;2.05;;;1.75;;
6809;SDS011;3443;48.812;9.112;2023-07-31T12:16:03;3.55;;;2.00;;
6809;SDS011;3443;48.812;9.112;2023-07-31T12:18:33;5.38;;;1.98;;
6809;SDS011;3443;48.812;9.112;2023-07-31T12:21:00;2.92;;;1.67;;
6809;SDS011;3443;48.812;9.112;2023-07-31T12:23:27;1.88;;;1.75;;
6809;SDS011;3443;48.812;9.112;2023-07-31T12:26:00;2.97;;;1.90;;
6809;SDS011;3443;48.812;9.112;2023-07-31T12:28:26;2.67;;;1.92;;
6809;SDS011;3443;48.812;9.112;2023-07-31T12:30:52;3.20;;;1.80;;
6809;SDS011;3443;48.812;9.112;2023-07-31T12:33:22;2.58;;;1.77;;
6809;SDS011;3443;48.812;9.112;2023-07-31T12:35:48;3.42;;;1.80;;
6809;SDS011;3443;48.812;9.112;2023-07-31T12:38:14;3.58;;;2.28;;
6809;SDS011;3443;48.812;9.112;2023-07-31T12:40:40;3.15;;;1.90;;
6809;SDS011;3443;48.812;9.112;2023-07-31T12:43:07;2.08;;;1.90;;
6809;SDS011;3443;48.812;9.112;2023-07-31T12:45:34;4.03;;;1.80;;
6809;SDS011;3443;48.812;9.112;2023-07-31T12:48:00;4.35;;;2.03;;
6809;SDS011;3443;48.812;9.112;2023-07-31T12:50:27;2.10;;;1.95;;
6809;SDS011;3443;48.812;9.112;2023-07-31T12:52:53;3.17;;;1.60;;
6809;SDS011;3443;48.812;9.112;2023-07-31T12:55:20;2.83;;;2.08;;
6809;SDS011;3443;48.812;9.112;2023-07-31T12:57:46;1.80;;;1.70;;
6809;SDS011;3443;48.812;9.112;2023-07-31T13:00:12;1.88;;;1.73;;
6809;SDS011;3443;48.812;9.112;2023-07-31T13:02:38;2.35;;;1.70;;
6809;SDS011;3443;48.812;9.112;2023-07-31T13:05:04;2.72;;;1.90;;
6809;SDS011;3443;48.812;9.112;2023-07-31T13:07:30;3.08;;;1.73;;
6809;SDS011;3443;48.812;9.112;2023-07-31T13:09:56;1.92;;;1.63;;
6809;SDS011;3443;48.812;9.112;2023-07-31T13:12:22;1.67;;;1.58;;
6809;SDS011;3443;48.812;9.112;2023-07-31T13:14:49;1.83;;;1.73;;
6809;SDS011;3443;48.812;9.112;2023-07-31T13:17:15;3.00;;;1.98;;
6809;SDS011;3443;48.812;9.112;2023-07-31T13:19:41;2.65;;;2.00;;
6809;SDS011;3443;48.812;9.112;2023-07-31T13:22:07;3.60;;;1.50;;
6809;SDS011;3443;48.812;9.112;2023-07-31T13:24:33;2.45;;;1.70;;
6809;SDS011;3443;48.812;9.112;2023-07-31T13:26:59;1.55;;;1.55;;
6809;SDS011;3443;48.812;9.112;2023-07-31T13:29:25;2.08;;;1.88;;
6809;SDS011;3443;48.812;9.112;2023-07-31T13:31:52;2.08;;;1.23;;
6809;SDS011;3443;48.812;9.112;2023-07-31T13:34:18;2.22;;;1.52;;
6809;SDS011;3443;48.812;9.112;2023-07-31T13:36:44;1.33;;;1.30;;
6809;SDS011;3443;48.812;9.112;2023-07-31T13:39:11;2.50;;;1.50;;
6809;SDS011;3443;48.812;9.112;2023-07-31T13:41:37;1.50;;;1.40;;
6809;SDS011;3443;48.812;9.112;2023-07-31T13:44:03;1.92;;;1.70;;
6809;SDS011;3443;48.812;9.112;2023-07-31T13:46:29;2.00;;;1.88;;
6809;SDS011;3443;48.812;9.112;2023-07-31T13:48:55;3.75;;;1.83;;
6809;SDS011;3443;48.812;9.112;2023-07-31T13:51:21;1.98;;;1.75;;
6809;SDS011;3443;48.812;9.112;2023-07-31T13:53:47;1.85;;;1.52;;
6809;SDS011;3443;48.812;9.112;2023-07-31T13:56:13;2.55;;;1.60;;
6809;SDS011;3443;48.812;9.112;2023-07-31T13:58:39;3.70;;;1.65;;
6809;SDS011;3443;48.812;9.112;2023-07-31T14:01:05;2.42;;;1.40;;
6809;SDS011;3443;48.812;9.112;2023-07-31T14:03:31;2.10;;;1.77;;
6809;SDS011;3443;48.812;9.112;2023-07-31T14:05:57;2.25;;;1.80;;
6809;SDS011;3443;48.812;9.112;2023-07-31T14:08:23;2.00;;;1.90;;
6809;SDS011;3443;48.812;9.112;2023-07-31T14:10:49;2.13;;;1.90;;
6809;SDS011;3443;48.812;9.112;2023-07-31T14:13:15;1.63;;;1.52;;
6809;SDS011;3443;48.812;9.112;2023-07-31T14:15:41;2.33;;;1.95;;
6809;SDS011;3443;48.812;9.112;2023-07-31T14:18:08;1.80;;;1.70;;
6809;SDS011;3443;48.812;9.112;2023-07-31T14:20:34;2.58;;;2.00;;
6809;SDS011;3443;48.812;9.112;2023-07-31T14:23:00;2.85;;;1.55;;
6809;SDS011;3443;48.812;9.112;2023-07-31T14:25:26;1.63;;;1.50;;
6809;SDS011;3443;48.812;9.112;2023-07-31T14:27:52;2.28;;;1.77;;
6809;SDS011;3443;48.812;9.112;2023-07-31T14:30:18;2.40;;;1.88;;
6809;SDS011;3443;48.812;9.112;2023-07-31T14:32:45;2.80;;;1.58;;
6809;SDS011;3443;48.812;9.112;2023-07-31T14:35:10;4.28;;;1.67;;
6809;SDS011;3443;48.812;9.112;2023-07-31T14:37:40;2.20;;;1.70;;
6809;SDS011;3443;48.812;9.112;2023-07-31T14:40:10;1.83;;;1.70;;
6809;SDS011;3443;48.812;9.112;2023-07-31T14:42:36;2.15;;;1.70;;
6809;SDS011;3443;48.812;9.112;2023-07-31T14:45:03;4.22;;;1.65;;
6809;SDS011;3443;48.812;9.112;2023-07-31T14:47:29;2.20;;;1.50;;
6809;SDS011;3443;48.812;9.112;2023-07-31T14:49:58;2.55;;;1.60;;
6809;SDS011;3443;48.812;9.112;2023-07-31T14:52:25;2.35;;;1.77;;
6809;SDS011;3443;48.812;9.112;2023-07-31T14:54:51;2.75;;;1.92;;
6809;SDS011;3443;48.812;9.112;2023-07-31T14:57:17;1.73;;;1.45;;
6809;SDS011;3443;48.812;9.112;2023-07-31T14:59:43;2.35;;;2.10;;
6809;SDS011;3443;48.812;9.112;2023-07-31T15:02:09;4.25;;;1.75;;
6809;SDS011;3443;48.812;9.112;2023-07-31T15:04:35;2.63;;;1.70;;
6809;SDS011;3443;48.812;9.112;2023-07-31T15:07:01;1.88;;;1.55;;
6809;SDS011;3443;48.812;9.112;2023-07-31T15:09:27;2.00;;;1.83;;
6809;SDS011;3443;48.812;9.112;2023-07-31T15:11:53;2.55;;;1.70;;
6809;SDS011;3443;48.812;9.112;2023-07-31T15:14:19;3.65;;;1.88;;
6809;SDS011;3443;48.812;9.112;2023-07-31T15:16:45;2.70;;;2.00;;